sensor_id;sensor_type;location;lat;lon;timestamp;temperature;humidity
67186;HTU21D;54116;53.518;49.398;2023-06-10T00:00:12;-1.87;118.99
67186;HTU21D;54116;53.518;49.398;2023-06-10T00:02:41;-1.91;118.99
67186;HTU21D;54116;53.518;49.398;2023-06-10T00:05:08;-1.88;118.99
67186;HTU21D;54116;53.518;49.398;2023-06-10T00:07:35;-1.87;118.99
67186;HTU21D;54116;53.518;49.398;2023-06-10T00:10:05;-1.87;118.99
67186;HTU21D;54116;53.518;49.398;2023-06-10T00:12:32;-1.90;118.99
67186;HTU21D;54116;53.518;49.398;2023-06-10T00:15:05;-1.91;118.99
67186;HTU21D;54116;53.518;49.398;2023-06-10T00:17:31;-1.94;118.99
67186;HTU21D;54116;53.518;49.398;2023-06-10T00:19:58;-1.98;118.99
67186;HTU21D;54116;53.518;49.398;2023-06-10T00:22:24;-1.87;118.99
67186;HTU21D;54116;53.518;49.398;2023-06-10T00:24:55;-2.00;118.99
67186;HTU21D;54116;53.518;49.398;2023-06-10T00:27:24;-1.94;118.99
67186;HTU21D;54116;53.518;49.398;2023-06-10T00:29:56;-1.98;118.99
67186;HTU21D;54116;53.518;49.398;2023-06-10T00:32:23;-2.01;118.99
67186;HTU21D;54116;53.518;49.398;2023-06-10T00:34:49;-1.99;118.99
67186;HTU21D;54116;53.518;49.398;2023-06-10T00:37:15;-2.01;118.99
67186;HTU21D;54116;53.518;49.398;2023-06-10T00:39:41;-2.03;118.99
67186;HTU21D;54116;53.518;49.398;2023-06-10T00:42:07;-2.05;118.99
67186;HTU21D;54116;53.518;49.398;2023-06-10T00:44:36;-2.05;118.99
67186;HTU21D;54116;53.518;49.398;2023-06-10T00:47:03;-1.95;118.99
67186;HTU21D;54116;53.518;49.398;2023-06-10T00:49:29;-2.00;118.99
67186;HTU21D;54116;53.518;49.398;2023-06-10T00:51:55;-2.03;118.99
67186;HTU21D;54116;53.518;49.398;2023-06-10T00:54:21;-2.00;118.99
67186;HTU21D;54116;53.518;49.398;2023-06-10T00:56:48;-1.99;118.99
67186;HTU21D;54116;53.518;49.398;2023-06-10T00:59:15;-1.90;118.99
67186;HTU21D;54116;53.518;49.398;2023-06-10T01:01:42;-2.00;118.99
67186;HTU21D;54116;53.518;49.398;2023-06-10T01:04:09;-1.98;118.99
67186;HTU21D;54116;53.518;49.398;2023-06-10T01:09:40;-2.01;118.99
67186;HTU21D;54116;53.518;49.398;2023-06-10T01:12:28;-2.05;118.99
67186;HTU21D;54116;53.518;49.398;2023-06-10T01:14:57;-2.04;118.99
67186;HTU21D;54116;53.518;49.398;2023-06-10T01:17:24;-2.07;118.99
67186;HTU21D;54116;53.518;49.398;2023-06-10T01:19:54;-1.98;118.99
67186;HTU21D;54116;53.518;49.398;2023-06-10T01:22:24;-2.10;118.99
67186;HTU21D;54116;53.518;49.398;2023-06-10T01:24:55;-2.04;118.99
67186;HTU21D;54116;53.518;49.398;2023-06-10T01:27:30;-1.91;118.99
67186;HTU21D;54116;53.518;49.398;2023-06-10T01:30:10;-1.98;118.99
67186;HTU21D;54116;53.518;49.398;2023-06-10T01:32:44;-1.91;118.99
67186;HTU21D;54116;53.518;49.398;2023-06-10T01:35:11;-1.86;118.99
67186;HTU21D;54116;53.518;49.398;2023-06-10T01:37:39;-1.73;118.99
67186;HTU21D;54116;53.518;49.398;2023-06-10T01:40:08;-1.77;118.99
67186;HTU21D;54116;53.518;49.398;2023-06-10T01:42:35;-1.78;118.99
67186;HTU21D;54116;53.518;49.398;2023-06-10T01:45:01;-1.75;118.99
67186;HTU21D;54116;53.518;49.398;2023-06-10T01:47:28;-1.76;118.99
67186;HTU21D;54116;53.518;49.398;2023-06-10T01:49:54;-1.72;118.99
67186;HTU21D;54116;53.518;49.398;2023-06-10T01:52:20;-1.69;118.99
67186;HTU21D;54116;53.518;49.398;2023-06-10T01:54:46;-1.63;118.99
67186;HTU21D;54116;53.518;49.398;2023-06-10T01:57:12;-1.62;118.99
67186;HTU21D;54116;53.518;49.398;2023-06-10T01:59:39;-1.62;118.99
67186;HTU21D;54116;53.518;49.398;2023-06-10T02:02:05;-1.58;118.99
67186;HTU21D;54116;53.518;49.398;2023-06-10T02:04:31;-1.57;118.99
67186;HTU21D;54116;53.518;49.398;2023-06-10T02:06:58;-1.43;118.99
67186;HTU21D;54116;53.518;49.398;2023-06-10T02:09:24;-1.53;118.99
67186;HTU21D;54116;53.518;49.398;2023-06-10T02:11:50;-1.45;118.99
67186;HTU21D;54116;53.518;49.398;2023-06-10T02:14:17;-1.43;118.99
67186;HTU21D;54116;53.518;49.398;2023-06-10T02:16:43;-1.31;118.99
67186;HTU21D;54116;53.518;49.398;2023-06-10T02:19:11;-1.38;118.99
67186;HTU21D;54116;53.518;49.398;2023-06-10T02:21:38;-1.31;118.99
67186;HTU21D;54116;53.518;49.398;2023-06-10T02:24:04;-1.18;118.99
67186;HTU21D;54116;53.518;49.398;2023-06-10T02:26:31;-1.12;118.99
67186;HTU21D;54116;53.518;49.398;2023-06-10T02:28:57;-0.73;118.99
67186;HTU21D;54116;53.518;49.398;2023-06-10T02:31:23;0.14;118.99
67186;HTU21D;54116;53.518;49.398;2023-06-10T02:33:51;0.54;118.99
67186;HTU21D;54116;53.518;49.398;2023-06-10T02:36:18;0.44;118.99
67186;HTU21D;54116;53.518;49.398;2023-06-10T02:38:44;0.52;118.99
67186;HTU21D;54116;53.518;49.398;2023-06-10T02:41:10;0.66;118.99
67186;HTU21D;54116;53.518;49.398;2023-06-10T02:43:36;0.48;118.99
67186;HTU21D;54116;53.518;49.398;2023-06-10T02:46:02;0.25;118.99
67186;HTU21D;54116;53.518;49.398;2023-06-10T02:48:28;0.07;118.99
67186;HTU21D;54116;53.518;49.398;2023-06-10T02:50:54;-0.00;118.99
67186;HTU21D;54116;53.518;49.398;2023-06-10T02:53:21;0.21;118.99
67186;HTU21D;54116;53.518;49.398;2023-06-10T02:55:47;0.06;118.99
67186;HTU21D;54116;53.518;49.398;2023-06-10T02:58:13;0.02;118.99
67186;HTU21D;54116;53.518;49.398;2023-06-10T03:00:40;-0.20;118.99
67186;HTU21D;54116;53.518;49.398;2023-06-10T03:03:08;-0.25;118.99
67186;HTU21D;54116;53.518;49.398;2023-06-10T03:05:34;-0.35;118.99
67186;HTU21D;54116;53.518;49.398;2023-06-10T03:08:00;-0.34;118.99
67186;HTU21D;54116;53.518;49.398;2023-06-10T03:10:26;-0.24;118.99
67186;HTU21D;54116;53.518;49.398;2023-06-10T03:12:52;-0.27;118.99
67186;HTU21D;54116;53.518;49.398;2023-06-10T03:15:18;-0.30;118.99
67186;HTU21D;54116;53.518;49.398;2023-06-10T03:17:46;-0.29;118.99
67186;HTU21D;54116;53.518;49.398;2023-06-10T03:20:12;-0.22;118.99
67186;HTU21D;54116;53.518;49.398;2023-06-10T03:22:41;-0.23;118.99
67186;HTU21D;54116;53.518;49.398;2023-06-10T03:25:07;-0.15;118.99
67186;HTU21D;54116;53.518;49.398;2023-06-10T03:27:42;-0.13;118.99
67186;HTU21D;54116;53.518;49.398;2023-06-10T03:30:09;-0.10;118.99
67186;HTU21D;54116;53.518;49.398;2023-06-10T03:32:35;-0.07;118.99
67186;HTU21D;54116;53.518;49.398;2023-06-10T03:35:02;-0.05;118.99
67186;HTU21D;54116;53.518;49.398;2023-06-10T03:37:28;0.20;118.99
67186;HTU21D;54116;53.518;49.398;2023-06-10T03:39:54;0.31;118.99
67186;HTU21D;54116;53.518;49.398;2023-06-10T03:42:20;0.82;118.99
67186;HTU21D;54116;53.518;49.398;2023-06-10T03:44:46;2.13;118.99
67186;HTU21D;54116;53.518;49.398;2023-06-10T03:47:13;3.52;118.99
67186;HTU21D;54116;53.518;49.398;2023-06-10T03:49:39;4.34;118.99
67186;HTU21D;54116;53.518;49.398;2023-06-10T03:52:06;5.15;118.99
67186;HTU21D;54116;53.518;49.398;2023-06-10T03:54:32;5.46;118.99
67186;HTU21D;54116;53.518;49.398;2023-06-10T03:57:00;5.39;118.99
67186;HTU21D;54116;53.518;49.398;2023-06-10T03:59:27;5.63;118.99
67186;HTU21D;54116;53.518;49.398;2023-06-10T04:01:53;5.59;118.99
67186;HTU21D;54116;53.518;49.398;2023-06-10T04:04:19;5.98;118.99
67186;HTU21D;54116;53.518;49.398;2023-06-10T04:06:45;6.12;118.99
67186;HTU21D;54116;53.518;49.398;2023-06-10T04:09:12;6.00;118.99
67186;HTU21D;54116;53.518;49.398;2023-06-10T04:11:38;5.59;118.99
67186;HTU21D;54116;53.518;49.398;2023-06-10T04:14:04;5.54;118.99
67186;HTU21D;54116;53.518;49.398;2023-06-10T04:16:31;6.15;118.99
67186;HTU21D;54116;53.518;49.398;2023-06-10T04:18:57;6.44;118.99
67186;HTU21D;54116;53.518;49.398;2023-06-10T04:21:23;6.07;118.99
67186;HTU21D;54116;53.518;49.398;2023-06-10T04:23:49;5.65;118.99
67186;HTU21D;54116;53.518;49.398;2023-06-10T04:26:15;5.52;118.99
67186;HTU21D;54116;53.518;49.398;2023-06-10T04:28:43;6.16;118.99
67186;HTU21D;54116;53.518;49.398;2023-06-10T04:31:09;6.45;118.99
67186;HTU21D;54116;53.518;49.398;2023-06-10T04:33:35;6.48;118.99
67186;HTU21D;54116;53.518;49.398;2023-06-10T04:36:01;6.40;118.99
67186;HTU21D;54116;53.518;49.398;2023-06-10T04:38:28;6.38;118.99
67186;HTU21D;54116;53.518;49.398;2023-06-10T04:40:54;6.31;118.99
67186;HTU21D;54116;53.518;49.398;2023-06-10T04:43:20;6.30;118.99
67186;HTU21D;54116;53.518;49.398;2023-06-10T04:45:46;6.52;118.99
67186;HTU21D;54116;53.518;49.398;2023-06-10T04:48:12;6.49;118.99
67186;HTU21D;54116;53.518;49.398;2023-06-10T04:50:39;5.95;118.99
67186;HTU21D;54116;53.518;49.398;2023-06-10T04:53:24;6.00;118.99
67186;HTU21D;54116;53.518;49.398;2023-06-10T04:55:51;6.20;118.99
67186;HTU21D;54116;53.518;49.398;2023-06-10T04:58:18;6.51;118.99
67186;HTU21D;54116;53.518;49.398;2023-06-10T05:00:44;6.20;118.99
67186;HTU21D;54116;53.518;49.398;2023-06-10T05:03:11;6.19;118.99
67186;HTU21D;54116;53.518;49.398;2023-06-10T05:05:55;5.80;118.99
67186;HTU21D;54116;53.518;49.398;2023-06-10T05:08:22;5.95;118.99
67186;HTU21D;54116;53.518;49.398;2023-06-10T05:13:32;5.23;118.99
67186;HTU21D;54116;53.518;49.398;2023-06-10T05:15:58;5.63;118.99
67186;HTU21D;54116;53.518;49.398;2023-06-10T05:18:25;5.50;118.99
67186;HTU21D;54116;53.518;49.398;2023-06-10T05:20:51;5.59;118.99
67186;HTU21D;54116;53.518;49.398;2023-06-10T05:23:17;5.25;118.99
67186;HTU21D;54116;53.518;49.398;2023-06-10T05:25:43;5.37;118.99
67186;HTU21D;54116;53.518;49.398;2023-06-10T05:28:09;5.40;118.99
67186;HTU21D;54116;53.518;49.398;2023-06-10T05:30:36;5.25;118.99
67186;HTU21D;54116;53.518;49.398;2023-06-10T05:33:03;5.10;118.99
67186;HTU21D;54116;53.518;49.398;2023-06-10T05:35:29;5.38;118.99
67186;HTU21D;54116;53.518;49.398;2023-06-10T05:38:14;5.37;118.99
67186;HTU21D;54116;53.518;49.398;2023-06-10T05:40:40;5.34;118.99
67186;HTU21D;54116;53.518;49.398;2023-06-10T05:43:06;5.38;118.99
67186;HTU21D;54116;53.518;49.398;2023-06-10T05:45:32;5.35;118.99
67186;HTU21D;54116;53.518;49.398;2023-06-10T05:47:58;4.87;118.99
67186;HTU21D;54116;53.518;49.398;2023-06-10T05:50:24;4.60;118.99
67186;HTU21D;54116;53.518;49.398;2023-06-10T05:52:51;4.69;118.99
67186;HTU21D;54116;53.518;49.398;2023-06-10T05:55:20;4.77;118.99
67186;HTU21D;54116;53.518;49.398;2023-06-10T06:00:33;5.12;118.99
67186;HTU21D;54116;53.518;49.398;2023-06-10T06:02:59;5.01;118.99
67186;HTU21D;54116;53.518;49.398;2023-06-10T06:05:25;4.94;118.99
67186;HTU21D;54116;53.518;49.398;2023-06-10T06:07:51;5.18;118.99
67186;HTU21D;54116;53.518;49.398;2023-06-10T06:10:18;5.02;118.99
67186;HTU21D;54116;53.518;49.398;2023-06-10T06:12:44;4.93;118.99
67186;HTU21D;54116;53.518;49.398;2023-06-10T06:15:11;4.61;118.99
67186;HTU21D;54116;53.518;49.398;2023-06-10T06:17:37;4.72;118.99
67186;HTU21D;54116;53.518;49.398;2023-06-10T06:20:04;4.73;118.99
67186;HTU21D;54116;53.518;49.398;2023-06-10T06:22:30;4.61;118.99
67186;HTU21D;54116;53.518;49.398;2023-06-10T06:24:56;4.95;118.99
67186;HTU21D;54116;53.518;49.398;2023-06-10T06:27:22;4.63;118.99
67186;HTU21D;54116;53.518;49.398;2023-06-10T06:29:48;4.47;118.99
67186;HTU21D;54116;53.518;49.398;2023-06-10T06:32:16;4.31;118.99
67186;HTU21D;54116;53.518;49.398;2023-06-10T06:34:42;4.21;118.99
67186;HTU21D;54116;53.518;49.398;2023-06-10T06:37:09;4.16;118.99
67186;HTU21D;54116;53.518;49.398;2023-06-10T06:39:35;4.21;118.99
67186;HTU21D;54116;53.518;49.398;2023-06-10T06:42:01;4.30;118.99
67186;HTU21D;54116;53.518;49.398;2023-06-10T06:44:27;4.39;118.99
67186;HTU21D;54116;53.518;49.398;2023-06-10T06:46:53;4.50;118.99
67186;HTU21D;54116;53.518;49.398;2023-06-10T06:49:19;4.31;118.99
67186;HTU21D;54116;53.518;49.398;2023-06-10T06:51:45;4.26;118.99
67186;HTU21D;54116;53.518;49.398;2023-06-10T06:54:11;3.99;118.99
67186;HTU21D;54116;53.518;49.398;2023-06-10T06:56:57;4.23;118.99
67186;HTU21D;54116;53.518;49.398;2023-06-10T06:59:24;4.26;118.99
67186;HTU21D;54116;53.518;49.398;2023-06-10T07:01:51;4.19;118.99
67186;HTU21D;54116;53.518;49.398;2023-06-10T07:04:20;4.37;118.99
67186;HTU21D;54116;53.518;49.398;2023-06-10T07:06:48;4.36;118.99
67186;HTU21D;54116;53.518;49.398;2023-06-10T07:09:33;4.31;118.99
67186;HTU21D;54116;53.518;49.398;2023-06-10T07:11:59;4.15;118.99
67186;HTU21D;54116;53.518;49.398;2023-06-10T07:14:25;3.90;118.99
67186;HTU21D;54116;53.518;49.398;2023-06-10T07:16:52;3.78;118.99
67186;HTU21D;54116;53.518;49.398;2023-06-10T07:19:18;3.62;118.99
67186;HTU21D;54116;53.518;49.398;2023-06-10T07:21:44;3.67;118.99
67186;HTU21D;54116;53.518;49.398;2023-06-10T07:24:10;3.77;118.99
67186;HTU21D;54116;53.518;49.398;2023-06-10T07:26:36;3.82;118.99
67186;HTU21D;54116;53.518;49.398;2023-06-10T07:31:48;3.65;118.99
67186;HTU21D;54116;53.518;49.398;2023-06-10T07:34:14;3.97;118.99
67186;HTU21D;54116;53.518;49.398;2023-06-10T07:36:40;3.65;118.99
67186;HTU21D;54116;53.518;49.398;2023-06-10T07:39:06;3.56;118.99
67186;HTU21D;54116;53.518;49.398;2023-06-10T07:41:34;3.90;118.99
67186;HTU21D;54116;53.518;49.398;2023-06-10T07:44:01;4.04;118.99
67186;HTU21D;54116;53.518;49.398;2023-06-10T07:46:27;4.08;118.99
67186;HTU21D;54116;53.518;49.398;2023-06-10T07:48:54;3.78;118.99
67186;HTU21D;54116;53.518;49.398;2023-06-10T07:51:20;3.55;118.99
67186;HTU21D;54116;53.518;49.398;2023-06-10T07:53:47;3.59;118.99
67186;HTU21D;54116;53.518;49.398;2023-06-10T07:56:13;3.57;118.99
67186;HTU21D;54116;53.518;49.398;2023-06-10T07:58:39;3.63;118.99
67186;HTU21D;54116;53.518;49.398;2023-06-10T08:01:05;3.74;118.99
67186;HTU21D;54116;53.518;49.398;2023-06-10T08:06:16;3.28;118.99
67186;HTU21D;54116;53.518;49.398;2023-06-10T08:08:43;3.40;118.99
67186;HTU21D;54116;53.518;49.398;2023-06-10T08:11:13;3.72;118.99
67186;HTU21D;54116;53.518;49.398;2023-06-10T08:13:39;3.83;118.99
67186;HTU21D;54116;53.518;49.398;2023-06-10T08:16:06;3.77;118.99
67186;HTU21D;54116;53.518;49.398;2023-06-10T08:18:32;4.00;118.99
67186;HTU21D;54116;53.518;49.398;2023-06-10T08:20:58;3.61;118.99
67186;HTU21D;54116;53.518;49.398;2023-06-10T08:23:24;3.50;118.99
67186;HTU21D;54116;53.518;49.398;2023-06-10T08:25:51;3.91;118.99
67186;HTU21D;54116;53.518;49.398;2023-06-10T08:28:18;3.86;118.99
67186;HTU21D;54116;53.518;49.398;2023-06-10T08:30:45;3.67;118.99
67186;HTU21D;54116;53.518;49.398;2023-06-10T08:33:12;3.57;118.99
67186;HTU21D;54116;53.518;49.398;2023-06-10T08:38:27;3.82;118.99
67186;HTU21D;54116;53.518;49.398;2023-06-10T08:40:56;3.58;118.99
67186;HTU21D;54116;53.518;49.398;2023-06-10T08:43:57;3.87;118.99
67186;HTU21D;54116;53.518;49.398;2023-06-10T08:46:25;3.52;118.99
67186;HTU21D;54116;53.518;49.398;2023-06-10T08:48:54;3.39;118.99
67186;HTU21D;54116;53.518;49.398;2023-06-10T08:51:23;3.34;118.99
67186;HTU21D;54116;53.518;49.398;2023-06-10T08:53:57;3.26;118.99
67186;HTU21D;54116;53.518;49.398;2023-06-10T08:56:29;3.20;118.99
67186;HTU21D;54116;53.518;49.398;2023-06-10T08:58:57;2.98;118.99
67186;HTU21D;54116;53.518;49.398;2023-06-10T09:01:26;2.87;118.99
67186;HTU21D;54116;53.518;49.398;2023-06-10T09:03:52;2.73;118.99
67186;HTU21D;54116;53.518;49.398;2023-06-10T09:06:18;2.56;118.99
67186;HTU21D;54116;53.518;49.398;2023-06-10T09:08:45;2.44;118.99
67186;HTU21D;54116;53.518;49.398;2023-06-10T09:11:11;2.36;118.99
67186;HTU21D;54116;53.518;49.398;2023-06-10T09:13:39;2.53;118.99
67186;HTU21D;54116;53.518;49.398;2023-06-10T09:16:08;2.49;118.99
67186;HTU21D;54116;53.518;49.398;2023-06-10T09:18:35;2.55;118.99
67186;HTU21D;54116;53.518;49.398;2023-06-10T09:21:01;2.59;118.99
67186;HTU21D;54116;53.518;49.398;2023-06-10T09:23:27;2.59;118.99
67186;HTU21D;54116;53.518;49.398;2023-06-10T09:25:57;2.50;118.99
67186;HTU21D;54116;53.518;49.398;2023-06-10T09:28:24;2.55;118.99
67186;HTU21D;54116;53.518;49.398;2023-06-10T09:31:02;2.95;118.99
67186;HTU21D;54116;53.518;49.398;2023-06-10T09:33:29;3.26;118.99
67186;HTU21D;54116;53.518;49.398;2023-06-10T09:35:55;2.93;118.99
67186;HTU21D;54116;53.518;49.398;2023-06-10T09:38:22;2.69;118.99
67186;HTU21D;54116;53.518;49.398;2023-06-10T09:40:53;2.50;118.99
67186;HTU21D;54116;53.518;49.398;2023-06-10T09:43:20;2.34;118.99
67186;HTU21D;54116;53.518;49.398;2023-06-10T09:45:50;2.16;118.99
67186;HTU21D;54116;53.518;49.398;2023-06-10T09:48:18;2.24;118.99
67186;HTU21D;54116;53.518;49.398;2023-06-10T09:50:46;2.27;118.99
67186;HTU21D;54116;53.518;49.398;2023-06-10T09:53:12;1.99;118.99
67186;HTU21D;54116;53.518;49.398;2023-06-10T09:55:39;1.78;118.99
67186;HTU21D;54116;53.518;49.398;2023-06-10T09:58:07;1.49;118.99
67186;HTU21D;54116;53.518;49.398;2023-06-10T10:00:33;1.46;118.99
67186;HTU21D;54116;53.518;49.398;2023-06-10T10:03:00;1.41;118.99
67186;HTU21D;54116;53.518;49.398;2023-06-10T10:05:27;1.37;118.99
67186;HTU21D;54116;53.518;49.398;2023-06-10T10:07:53;1.12;118.99
67186;HTU21D;54116;53.518;49.398;2023-06-10T10:10:22;1.03;118.99
67186;HTU21D;54116;53.518;49.398;2023-06-10T10:12:53;0.98;118.99
67186;HTU21D;54116;53.518;49.398;2023-06-10T10:15:21;0.75;118.99
67186;HTU21D;54116;53.518;49.398;2023-06-10T10:18:07;0.50;118.99
67186;HTU21D;54116;53.518;49.398;2023-06-10T10:20:34;0.53;118.99
67186;HTU21D;54116;53.518;49.398;2023-06-10T10:23:03;0.40;118.99
67186;HTU21D;54116;53.518;49.398;2023-06-10T10:25:35;0.21;118.99
67186;HTU21D;54116;53.518;49.398;2023-06-10T10:28:08;0.12;118.99
67186;HTU21D;54116;53.518;49.398;2023-06-10T10:30:59;0.05;118.99
67186;HTU21D;54116;53.518;49.398;2023-06-10T10:33:51;0.01;118.99
67186;HTU21D;54116;53.518;49.398;2023-06-10T10:36:19;-0.16;118.99
67186;HTU21D;54116;53.518;49.398;2023-06-10T10:38:45;-0.34;118.99
67186;HTU21D;54116;53.518;49.398;2023-06-10T10:41:15;-0.50;118.99
67186;HTU21D;54116;53.518;49.398;2023-06-10T10:43:43;-0.73;118.99
67186;HTU21D;54116;53.518;49.398;2023-06-10T10:46:15;-1.16;118.99
67186;HTU21D;54116;53.518;49.398;2023-06-10T10:48:42;-1.94;118.99
67186;HTU21D;54116;53.518;49.398;2023-06-10T10:51:09;-1.94;118.99
67186;HTU21D;54116;53.518;49.398;2023-06-10T10:53:38;-2.06;118.99
67186;HTU21D;54116;53.518;49.398;2023-06-10T10:56:27;-2.16;118.99
67186;HTU21D;54116;53.518;49.398;2023-06-10T10:59:06;-2.24;118.99
67186;HTU21D;54116;53.518;49.398;2023-06-10T11:01:42;-2.18;118.99
67186;HTU21D;54116;53.518;49.398;2023-06-10T11:04:12;-2.28;118.99
67186;HTU21D;54116;53.518;49.398;2023-06-10T11:06:52;-2.21;118.99
67186;HTU21D;54116;53.518;49.398;2023-06-10T11:09:28;-2.09;118.99
67186;HTU21D;54116;53.518;49.398;2023-06-10T11:11:57;-2.04;118.99
67186;HTU21D;54116;53.518;49.398;2023-06-10T11:14:28;-2.08;118.99
67186;HTU21D;54116;53.518;49.398;2023-06-10T11:16:59;-2.10;118.99
67186;HTU21D;54116;53.518;49.398;2023-06-10T11:19:35;-2.20;118.99
67186;HTU21D;54116;53.518;49.398;2023-06-10T11:22:04;-2.24;118.99
67186;HTU21D;54116;53.518;49.398;2023-06-10T11:24:31;-2.27;118.99
67186;HTU21D;54116;53.518;49.398;2023-06-10T11:32:31;-2.36;118.99
67186;HTU21D;54116;53.518;49.398;2023-06-10T11:34:57;-2.42;118.99
67186;HTU21D;54116;53.518;49.398;2023-06-10T11:37:24;-2.37;118.99
67186;HTU21D;54116;53.518;49.398;2023-06-10T11:40:01;-2.24;118.99
67186;HTU21D;54116;53.518;49.398;2023-06-10T11:42:28;-2.26;118.99
67186;HTU21D;54116;53.518;49.398;2023-06-10T11:44:55;-2.20;118.99
67186;HTU21D;54116;53.518;49.398;2023-06-10T11:47:21;-2.21;118.99
67186;HTU21D;54116;53.518;49.398;2023-06-10T11:49:56;-2.14;118.99
67186;HTU21D;54116;53.518;49.398;2023-06-10T11:52:28;-2.03;118.99
67186;HTU21D;54116;53.518;49.398;2023-06-10T11:54:55;-1.84;118.99
67186;HTU21D;54116;53.518;49.398;2023-06-10T11:57:22;-2.05;118.99
67186;HTU21D;54116;53.518;49.398;2023-06-10T11:59:48;-2.18;118.99
67186;HTU21D;54116;53.518;49.398;2023-06-10T12:02:18;-2.19;118.99
67186;HTU21D;54116;53.518;49.398;2023-06-10T12:04:45;-2.35;118.99
67186;HTU21D;54116;53.518;49.398;2023-06-10T12:07:18;-2.21;118.99
67186;HTU21D;54116;53.518;49.398;2023-06-10T12:09:45;-2.41;118.99
67186;HTU21D;54116;53.518;49.398;2023-06-10T12:12:11;-2.28;118.99
67186;HTU21D;54116;53.518;49.398;2023-06-10T12:14:52;-2.26;118.99
67186;HTU21D;54116;53.518;49.398;2023-06-10T12:19:59;-2.20;118.99
67186;HTU21D;54116;53.518;49.398;2023-06-10T12:22:25;-2.26;118.99
67186;HTU21D;54116;53.518;49.398;2023-06-10T12:25:03;-2.30;118.99
67186;HTU21D;54116;53.518;49.398;2023-06-10T12:27:30;-2.21;118.99
67186;HTU21D;54116;53.518;49.398;2023-06-10T12:29:58;-2.28;118.99
67186;HTU21D;54116;53.518;49.398;2023-06-10T12:32:46;-2.33;118.99
67186;HTU21D;54116;53.518;49.398;2023-06-10T12:35:16;-2.29;118.99
67186;HTU21D;54116;53.518;49.398;2023-06-10T12:38:03;-2.16;118.99
67186;HTU21D;54116;53.518;49.398;2023-06-10T12:40:34;-2.13;118.99
67186;HTU21D;54116;53.518;49.398;2023-06-10T12:43:02;-2.09;118.99
67186;HTU21D;54116;53.518;49.398;2023-06-10T12:45:36;-2.05;118.99
67186;HTU21D;54116;53.518;49.398;2023-06-10T12:48:10;-2.04;118.99
67186;HTU21D;54116;53.518;49.398;2023-06-10T12:50:38;-2.13;118.99
67186;HTU21D;54116;53.518;49.398;2023-06-10T12:53:05;-2.05;118.99
67186;HTU21D;54116;53.518;49.398;2023-06-10T12:55:33;-1.82;118.99
67186;HTU21D;54116;53.518;49.398;2023-06-10T12:57:59;-1.74;118.99
67186;HTU21D;54116;53.518;49.398;2023-06-10T13:00:27;-1.93;118.99
67186;HTU21D;54116;53.518;49.398;2023-06-10T13:02:59;-2.10;118.99
67186;HTU21D;54116;53.518;49.398;2023-06-10T13:05:26;-2.15;118.99
67186;HTU21D;54116;53.518;49.398;2023-06-10T13:07:54;-2.30;118.99
67186;HTU21D;54116;53.518;49.398;2023-06-10T13:10:21;-2.32;118.99
67186;HTU21D;54116;53.518;49.398;2023-06-10T13:12:47;-2.33;118.99
67186;HTU21D;54116;53.518;49.398;2023-06-10T13:15:14;-2.35;118.99
67186;HTU21D;54116;53.518;49.398;2023-06-10T13:17:44;-2.59;118.99
67186;HTU21D;54116;53.518;49.398;2023-06-10T13:20:11;-2.63;118.99
67186;HTU21D;54116;53.518;49.398;2023-06-10T13:22:37;-2.69;118.99
67186;HTU21D;54116;53.518;49.398;2023-06-10T13:25:04;-2.61;118.99
67186;HTU21D;54116;53.518;49.398;2023-06-10T13:27:32;-2.71;118.99
67186;HTU21D;54116;53.518;49.398;2023-06-10T13:29:59;-2.81;118.99
67186;HTU21D;54116;53.518;49.398;2023-06-10T13:32:25;-2.83;118.99
67186;HTU21D;54116;53.518;49.398;2023-06-10T13:34:51;-2.67;118.99
67186;HTU21D;54116;53.518;49.398;2023-06-10T13:37:19;-2.67;118.99
67186;HTU21D;54116;53.518;49.398;2023-06-10T13:39:46;-2.66;118.99
67186;HTU21D;54116;53.518;49.398;2023-06-10T13:42:20;-2.78;118.99
67186;HTU21D;54116;53.518;49.398;2023-06-10T13:44:47;-2.91;118.99
67186;HTU21D;54116;53.518;49.398;2023-06-10T13:47:14;-2.80;118.99
67186;HTU21D;54116;53.518;49.398;2023-06-10T13:49:41;-2.58;118.99
67186;HTU21D;54116;53.518;49.398;2023-06-10T13:52:07;-2.65;118.99
67186;HTU21D;54116;53.518;49.398;2023-06-10T13:54:34;-2.62;118.99
67186;HTU21D;54116;53.518;49.398;2023-06-10T13:57:02;-2.59;118.99
67186;HTU21D;54116;53.518;49.398;2023-06-10T13:59:29;-2.64;118.99
67186;HTU21D;54116;53.518;49.398;2023-06-10T14:01:55;-2.66;118.99
67186;HTU21D;54116;53.518;49.398;2023-06-10T14:04:22;-2.65;118.99
67186;HTU21D;54116;53.518;49.398;2023-06-10T14:06:48;-2.73;118.99
67186;HTU21D;54116;53.518;49.398;2023-06-10T14:09:14;-2.64;118.99
67186;HTU21D;54116;53.518;49.398;2023-06-10T14:11:42;-2.71;118.99
67186;HTU21D;54116;53.518;49.398;2023-06-10T14:14:08;-2.61;118.99
67186;HTU21D;54116;53.518;49.398;2023-06-10T14:16:35;-2.60;118.99
67186;HTU21D;54116;53.518;49.398;2023-06-10T14:19:01;-2.58;118.99
67186;HTU21D;54116;53.518;49.398;2023-06-10T14:21:27;-2.35;118.99
67186;HTU21D;54116;53.518;49.398;2023-06-10T14:23:53;-2.32;118.99
67186;HTU21D;54116;53.518;49.398;2023-06-10T14:26:19;-2.41;118.99
67186;HTU21D;54116;53.518;49.398;2023-06-10T14:28:48;-2.43;118.99
67186;HTU21D;54116;53.518;49.398;2023-06-10T14:31:15;-2.52;118.99
67186;HTU21D;54116;53.518;49.398;2023-06-10T14:33:41;-2.51;118.99
67186;HTU21D;54116;53.518;49.398;2023-06-10T14:36:10;-2.66;118.99
67186;HTU21D;54116;53.518;49.398;2023-06-10T14:38:36;-2.72;118.99
67186;HTU21D;54116;53.518;49.398;2023-06-10T14:41:02;-2.60;118.99
67186;HTU21D;54116;53.518;49.398;2023-06-10T14:43:28;-2.46;118.99
67186;HTU21D;54116;53.518;49.398;2023-06-10T14:45:54;-2.31;118.99
67186;HTU21D;54116;53.518;49.398;2023-06-10T14:48:21;-2.42;118.99
67186;HTU21D;54116;53.518;49.398;2023-06-10T14:50:49;-2.42;118.99
67186;HTU21D;54116;53.518;49.398;2023-06-10T14:53:20;-2.49;118.99
67186;HTU21D;54116;53.518;49.398;2023-06-10T14:55:46;-2.42;118.99
67186;HTU21D;54116;53.518;49.398;2023-06-10T14:58:12;-2.58;118.99
67186;HTU21D;54116;53.518;49.398;2023-06-10T15:00:38;-2.77;118.99
67186;HTU21D;54116;53.518;49.398;2023-06-10T15:03:05;-2.80;118.99
67186;HTU21D;54116;53.518;49.398;2023-06-10T15:05:31;-2.89;118.99
67186;HTU21D;54116;53.518;49.398;2023-06-10T15:07:59;-2.91;118.99
67186;HTU21D;54116;53.518;49.398;2023-06-10T15:10:25;-2.86;118.99
67186;HTU21D;54116;53.518;49.398;2023-06-10T15:12:51;-2.96;118.99
67186;HTU21D;54116;53.518;49.398;2023-06-10T15:15:22;-2.90;118.99
67186;HTU21D;54116;53.518;49.398;2023-06-10T15:17:48;-2.92;118.99
67186;HTU21D;54116;53.518;49.398;2023-06-10T15:20:14;-2.81;118.99
67186;HTU21D;54116;53.518;49.398;2023-06-10T15:22:41;-2.89;118.99
67186;HTU21D;54116;53.518;49.398;2023-06-10T15:25:07;-2.86;118.99